createdAt,value
2022-12-18T00:01:34.124Z,8.83
2022-12-18T00:04:04.091Z,8.93
2022-12-18T00:06:33.682Z,8.89
2022-12-18T00:09:04.956Z,8.82
2022-12-18T00:11:33.891Z,8.82
2022-12-18T00:14:02.185Z,8.75
2022-12-18T00:16:31.999Z,8.87
2022-12-18T00:19:00.417Z,9.06
2022-12-18T00:21:29.366Z,9.12
2022-12-18T00:23:57.636Z,9.08
2022-12-18T00:26:29.542Z,9.10
2022-12-18T00:29:00.600Z,8.97
2022-12-18T00:31:29.108Z,8.76
2022-12-18T00:33:57.572Z,8.68
2022-12-18T00:36:27.380Z,8.79
2022-12-18T00:38:56.511Z,8.89
2022-12-18T00:41:44.014Z,8.97
2022-12-18T00:44:13.928Z,9.06
2022-12-18T00:46:42.556Z,8.61
2022-12-18T00:49:10.673Z,8.68
2022-12-18T00:51:38.713Z,8.86
2022-12-18T00:54:06.758Z,8.89
2022-12-18T00:56:45.701Z,8.74
2022-12-18T00:59:17.162Z,8.89
2022-12-18T01:01:45.802Z,8.88
2022-12-18T01:04:14.091Z,8.87
2022-12-18T01:06:42.438Z,8.80
2022-12-18T01:09:10.374Z,8.85
2022-12-18T01:11:39.813Z,8.76
2022-12-18T01:14:08.240Z,8.72
2022-12-18T01:16:36.442Z,8.66
2022-12-18T01:19:04.521Z,8.75
2022-12-18T01:21:32.466Z,8.82
2022-12-18T01:24:00.489Z,8.82
2022-12-18T01:26:30.620Z,8.85
2022-12-18T01:29:00.111Z,8.58
2022-12-18T01:31:29.958Z,8.66
2022-12-18T01:33:58.621Z,8.67
2022-12-18T01:36:29.566Z,8.52
2022-12-18T01:38:58.224Z,8.53
2022-12-18T01:41:48.950Z,8.74
2022-12-18T01:45:05.806Z,8.59
2022-12-18T01:47:38.834Z,8.57
2022-12-18T01:50:11.083Z,8.67
2022-12-18T01:52:40.419Z,8.46
2022-12-18T01:55:10.219Z,8.35
2022-12-18T01:57:39.401Z,8.41
2022-12-18T02:00:11.194Z,8.55
2022-12-18T02:02:41.521Z,8.56
2022-12-18T02:05:11.385Z,8.59
2022-12-18T02:07:46.364Z,8.71
2022-12-18T02:10:21.181Z,8.71
2022-12-18T02:12:55.141Z,8.62
2022-12-18T02:15:33.299Z,8.77
2022-12-18T02:18:09.496Z,8.81
2022-12-18T02:20:43.100Z,8.81
2022-12-18T02:23:25.226Z,8.85
2022-12-18T02:26:08.871Z,8.68
2022-12-18T02:28:42.295Z,8.78
2022-12-18T02:31:13.895Z,8.78
2022-12-18T02:33:44.133Z,8.54
2022-12-18T02:36:14.418Z,8.38
2022-12-18T02:38:44.642Z,8.52
2022-12-18T02:41:15.261Z,8.50
2022-12-18T02:43:48.029Z,8.33
2022-12-18T02:46:32.108Z,8.27
2022-12-18T02:49:07.747Z,8.45
2022-12-18T02:51:45.950Z,8.58
2022-12-18T02:54:23.712Z,8.65
2022-12-18T02:56:56.710Z,8.73
2022-12-18T02:59:31.689Z,8.69
2022-12-18T03:02:04.802Z,8.87
2022-12-18T03:04:41.167Z,8.71
2022-12-18T03:07:17.495Z,8.82
2022-12-18T03:09:50.739Z,8.92
2022-12-18T03:12:27.089Z,8.82
2022-12-18T03:15:01.124Z,8.70
2022-12-18T03:17:32.490Z,8.71
2022-12-18T03:20:04.788Z,8.52
2022-12-18T03:22:35.386Z,8.60
2022-12-18T03:25:08.258Z,8.75
2022-12-18T03:27:41.143Z,8.94
2022-12-18T03:30:13.232Z,8.90
2022-12-18T03:32:46.636Z,8.91
2022-12-18T03:35:18.588Z,8.94
2022-12-18T03:37:46.699Z,8.94
2022-12-18T03:40:14.815Z,8.93
2022-12-18T03:42:51.699Z,8.97
2022-12-18T03:45:24.753Z,8.92
2022-12-18T03:48:01.852Z,8.81
2022-12-18T03:50:39.357Z,8.90
2022-12-18T03:53:15.845Z,8.99
2022-12-18T03:55:45.644Z,9.03
2022-12-18T03:58:18.343Z,8.75
2022-12-18T04:00:47.899Z,8.95
2022-12-18T04:03:16.832Z,9.06
2022-12-18T04:05:46.147Z,9.12
2022-12-18T04:08:14.545Z,9.07
2022-12-18T04:10:42.548Z,8.99
2022-12-18T04:13:11.687Z,9.05
2022-12-18T04:15:41.561Z,9.05
2022-12-18T04:18:09.880Z,8.97
2022-12-18T04:20:37.788Z,8.90
2022-12-18T04:23:05.670Z,8.71
2022-12-18T04:25:33.570Z,8.78
2022-12-18T04:28:01.428Z,8.67
2022-12-18T04:30:29.399Z,8.82
2022-12-18T04:32:58.698Z,8.83
2022-12-18T04:35:26.687Z,8.73
2022-12-18T04:37:54.581Z,8.74
2022-12-18T04:40:22.543Z,8.59
2022-12-18T04:42:50.506Z,8.58
2022-12-18T04:45:18.502Z,8.50
2022-12-18T04:47:46.440Z,8.56
2022-12-18T04:50:15.715Z,8.45
2022-12-18T04:52:43.643Z,8.42
2022-12-18T04:55:11.581Z,8.57
2022-12-18T04:57:39.784Z,8.47
2022-12-18T05:00:09.269Z,8.45
2022-12-18T05:02:37.230Z,8.35
2022-12-18T05:05:05.743Z,8.39
2022-12-18T05:07:35.091Z,8.25
2022-12-18T05:10:02.953Z,8.30
2022-12-18T05:12:30.823Z,8.15
2022-12-18T05:14:58.742Z,8.08
2022-12-18T05:17:26.700Z,7.91
2022-12-18T05:19:54.637Z,7.95
2022-12-18T05:22:22.718Z,8.00
2022-12-18T05:24:52.014Z,8.02
2022-12-18T05:27:21.628Z,8.16
2022-12-18T05:29:49.558Z,8.07
2022-12-18T05:32:17.436Z,7.91
2022-12-18T05:34:45.312Z,8.08
2022-12-18T05:37:13.202Z,8.20
2022-12-18T05:39:41.171Z,8.14
2022-12-18T05:42:10.946Z,8.31
2022-12-18T05:44:38.909Z,8.24
2022-12-18T05:47:06.912Z,8.23
2022-12-18T05:49:34.941Z,8.24
2022-12-18T05:52:02.900Z,8.25
2022-12-18T05:54:30.839Z,8.27
2022-12-18T05:56:59.170Z,8.17
2022-12-18T05:59:28.800Z,8.33
2022-12-18T06:01:56.873Z,8.35
2022-12-18T06:04:24.922Z,8.33
2022-12-18T06:06:52.820Z,8.48
2022-12-18T06:09:20.882Z,8.16
2022-12-18T06:11:48.868Z,8.00
2022-12-18T06:14:18.316Z,7.93
2022-12-18T06:16:47.576Z,8.12
2022-12-18T06:19:18.368Z,8.15
2022-12-18T06:21:46.296Z,8.42
2022-12-18T06:24:14.242Z,8.29
2022-12-18T06:26:42.358Z,8.47
2022-12-18T06:29:10.444Z,8.39
2022-12-18T06:31:38.549Z,8.66
2022-12-18T06:34:07.926Z,8.46
2022-12-18T06:36:35.814Z,8.50
2022-12-18T06:39:04.061Z,8.41
2022-12-18T06:41:32.082Z,8.31
2022-12-18T06:44:00.287Z,8.60
2022-12-18T06:46:28.454Z,8.50
2022-12-18T06:48:56.435Z,8.56
2022-12-18T06:51:27.851Z,8.59
2022-12-18T06:53:55.820Z,8.33
2022-12-18T06:56:23.900Z,8.41
2022-12-18T06:58:51.952Z,8.54
2022-12-18T07:01:20.158Z,8.45
2022-12-18T07:03:48.248Z,8.32
2022-12-18T07:06:17.865Z,8.21
2022-12-18T07:08:47.664Z,8.30
2022-12-18T07:11:16.495Z,8.21
2022-12-18T07:13:44.647Z,8.27
2022-12-18T07:16:20.851Z,8.28
2022-12-18T07:18:52.271Z,8.22
2022-12-18T07:21:21.718Z,8.28
2022-12-18T07:23:51.402Z,8.29
2022-12-18T07:26:20.799Z,8.42
2022-12-18T07:28:49.248Z,8.14
2022-12-18T07:31:19.478Z,8.17
2022-12-18T07:33:48.660Z,8.17
2022-12-18T07:36:16.957Z,8.35
2022-12-18T07:38:45.303Z,8.29
2022-12-18T07:41:15.628Z,8.44
2022-12-18T07:43:44.638Z,8.51
2022-12-18T07:46:14.715Z,8.38
2022-12-18T07:48:43.664Z,8.22
2022-12-18T07:51:13.521Z,8.46
2022-12-18T07:53:42.732Z,8.51
2022-12-18T07:56:29.611Z,8.43
2022-12-18T07:59:00.657Z,8.61
2022-12-18T08:01:29.127Z,8.79
2022-12-18T08:03:57.926Z,8.59
2022-12-18T08:06:25.900Z,8.63
2022-12-18T08:08:55.006Z,8.65
2022-12-18T08:11:23.794Z,8.57
2022-12-18T08:13:51.671Z,8.63
2022-12-18T08:16:21.944Z,8.76
2022-12-18T08:18:50.527Z,8.79
2022-12-18T08:21:22.182Z,8.92
2022-12-18T08:23:51.656Z,8.97
2022-12-18T08:26:20.993Z,8.97
2022-12-18T08:28:49.469Z,9.03
2022-12-18T08:31:18.497Z,8.94
2022-12-18T08:33:51.373Z,8.96
2022-12-18T08:36:19.528Z,9.08
2022-12-18T08:38:47.654Z,9.06
2022-12-18T08:41:16.854Z,9.09
2022-12-18T08:44:02.265Z,9.16
2022-12-18T08:46:36.041Z,8.88
2022-12-18T08:49:06.239Z,9.16
2022-12-18T08:51:34.470Z,9.21
2022-12-18T08:54:03.145Z,8.99
2022-12-18T08:56:33.063Z,8.92
2022-12-18T08:59:01.076Z,9.05
2022-12-18T09:01:29.514Z,8.92
2022-12-18T09:03:57.563Z,9.35
2022-12-18T09:06:27.591Z,9.29
2022-12-18T09:08:55.580Z,9.33
2022-12-18T09:11:25.636Z,9.32
2022-12-18T09:13:54.778Z,9.23
2022-12-18T09:16:27.354Z,9.31
2022-12-18T09:19:01.307Z,9.15
2022-12-18T09:21:34.348Z,9.24
2022-12-18T09:24:08.011Z,9.10
2022-12-18T09:26:37.821Z,9.25
2022-12-18T09:29:08.113Z,9.07
2022-12-18T09:31:36.952Z,9.17
2022-12-18T09:34:04.876Z,9.32
2022-12-18T09:36:34.218Z,9.38
2022-12-18T09:39:07.580Z,9.30
2022-12-18T09:41:43.607Z,9.26
2022-12-18T09:44:36.839Z,9.15
2022-12-18T09:47:13.624Z,9.15
2022-12-18T09:49:45.168Z,9.18
2022-12-18T09:52:21.705Z,9.29
2022-12-18T09:54:55.819Z,9.18
2022-12-18T09:57:26.649Z,9.18
2022-12-18T09:59:58.746Z,9.19
2022-12-18T10:02:28.692Z,9.30
2022-12-18T10:05:12.685Z,9.20
2022-12-18T10:08:01.238Z,9.04
2022-12-18T10:10:37.938Z,9.19
2022-12-18T10:13:17.734Z,9.18
2022-12-18T10:16:02.733Z,9.06
2022-12-18T10:18:48.908Z,9.05
2022-12-18T10:21:23.799Z,9.04
2022-12-18T10:24:05.062Z,8.92
2022-12-18T10:26:34.938Z,9.01
2022-12-18T10:29:05.808Z,8.92
2022-12-18T10:31:34.107Z,9.11
2022-12-18T10:34:02.291Z,9.24
2022-12-18T10:36:30.837Z,9.23
2022-12-18T10:39:17.512Z,9.09
2022-12-18T10:41:45.812Z,9.21
2022-12-18T10:44:19.400Z,9.27
2022-12-18T10:46:49.223Z,9.05
2022-12-18T10:49:24.623Z,9.09
2022-12-18T10:51:53.939Z,9.04
2022-12-18T10:54:25.201Z,9.04
2022-12-18T10:56:53.161Z,9.04
2022-12-18T10:59:21.179Z,9.02
2022-12-18T11:01:51.984Z,9.11
2022-12-18T11:04:23.172Z,9.06
2022-12-18T11:07:00.650Z,9.09
2022-12-18T11:09:32.811Z,8.91
2022-12-18T11:12:02.570Z,8.90
2022-12-18T11:14:34.731Z,8.80
2022-12-18T11:17:24.981Z,9.00
2022-12-18T11:19:55.617Z,9.04
2022-12-18T11:22:27.534Z,8.82
2022-12-18T11:27:51.616Z,8.62
2022-12-18T11:30:25.291Z,8.67
2022-12-18T11:32:58.180Z,8.86
2022-12-18T11:35:37.046Z,8.51
2022-12-18T11:38:12.923Z,8.26
2022-12-18T11:40:46.772Z,7.53
2022-12-18T11:43:19.094Z,7.65
2022-12-18T11:45:54.616Z,7.43
2022-12-18T11:48:27.616Z,7.26
2022-12-18T11:50:57.610Z,7.20
2022-12-18T11:53:27.256Z,6.88
2022-12-18T11:56:29.437Z,7.28
2022-12-18T11:59:10.900Z,7.30
2022-12-18T12:01:51.022Z,7.30
2022-12-18T12:04:43.316Z,7.32
2022-12-18T12:07:24.839Z,7.35
2022-12-18T12:10:02.847Z,7.46
2022-12-18T12:12:49.242Z,7.52
2022-12-18T12:15:29.723Z,7.49
2022-12-18T12:18:08.215Z,7.59
2022-12-18T12:20:49.871Z,7.72
2022-12-18T12:23:28.780Z,7.74
2022-12-18T12:26:03.587Z,7.96
2022-12-18T12:28:51.210Z,8.03
2022-12-18T12:31:30.628Z,8.23
2022-12-18T12:34:07.226Z,8.14
2022-12-18T12:36:47.837Z,8.17
2022-12-18T12:39:20.206Z,8.19
2022-12-18T12:42:06.865Z,8.12
2022-12-18T12:44:42.764Z,7.96
2022-12-18T12:47:18.541Z,7.96
2022-12-18T12:49:48.734Z,7.74
2022-12-18T12:52:29.809Z,8.01
2022-12-18T12:55:00.248Z,7.78
2022-12-18T12:57:35.855Z,7.82
2022-12-18T13:00:11.378Z,7.86
2022-12-18T13:02:46.583Z,7.71
2022-12-18T13:05:24.148Z,7.79
2022-12-18T13:07:58.518Z,7.75
2022-12-18T13:10:33.810Z,7.71
2022-12-18T13:13:03.551Z,7.78
2022-12-18T13:15:46.215Z,7.76
2022-12-18T13:18:18.910Z,7.81
2022-12-18T13:20:55.390Z,7.95
2022-12-18T13:23:35.202Z,7.97
2022-12-18T13:26:32.253Z,7.80
2022-12-18T13:29:02.843Z,7.62
2022-12-18T13:32:10.385Z,7.71
2022-12-18T13:34:39.745Z,7.71
2022-12-18T13:37:42.851Z,7.76
2022-12-18T13:40:58.821Z,7.79
2022-12-18T13:43:31.895Z,7.90
2022-12-18T13:46:22.354Z,8.03
2022-12-18T13:48:54.766Z,7.93
2022-12-18T13:51:25.238Z,8.07
2022-12-18T13:53:56.311Z,8.18
2022-12-18T13:56:27.189Z,8.06
2022-12-18T13:59:14.034Z,8.22
2022-12-18T14:01:47.430Z,8.29
2022-12-18T14:04:23.107Z,8.20
2022-12-18T14:06:55.725Z,8.32
2022-12-18T14:09:28.114Z,8.33
2022-12-18T14:12:19.420Z,7.85
2022-12-18T14:14:49.921Z,8.14
2022-12-18T14:17:21.480Z,7.89
2022-12-18T14:19:52.584Z,7.76
2022-12-18T14:22:28.616Z,7.85
2022-12-18T14:25:16.156Z,7.84
2022-12-18T14:27:45.540Z,7.85
2022-12-18T14:30:28.012Z,7.78
2022-12-18T14:33:03.639Z,7.79
2022-12-18T14:35:31.938Z,7.53
2022-12-18T14:38:20.006Z,7.85
2022-12-18T14:40:48.216Z,7.87
2022-12-18T14:43:16.131Z,7.79
2022-12-18T14:45:47.082Z,7.67
2022-12-18T14:48:23.513Z,7.76
2022-12-18T14:51:00.799Z,7.80
2022-12-18T14:53:39.214Z,7.85
2022-12-18T14:56:17.665Z,7.89
2022-12-18T14:58:50.998Z,7.67
2022-12-18T15:01:28.844Z,7.92
2022-12-18T15:03:58.910Z,7.82
2022-12-18T15:06:33.308Z,7.82
2022-12-18T15:09:06.364Z,7.80
2022-12-18T15:11:47.838Z,7.82
2022-12-18T15:14:36.924Z,7.84
2022-12-18T15:17:09.056Z,7.84
2022-12-18T15:19:40.795Z,7.91
2022-12-18T15:22:25.139Z,7.82
2022-12-18T15:24:55.528Z,7.85
2022-12-18T15:27:26.386Z,8.04
2022-12-18T15:30:23.602Z,7.91
2022-12-18T15:32:52.248Z,8.05
2022-12-18T15:35:23.009Z,8.02
2022-12-18T15:37:52.011Z,7.94
2022-12-18T15:40:23.437Z,8.04
2022-12-18T15:43:13.013Z,8.05
2022-12-18T15:45:41.116Z,7.92
2022-12-18T15:48:21.552Z,7.96
2022-12-18T15:50:49.670Z,8.08
2022-12-18T15:53:17.597Z,8.02
2022-12-18T15:56:04.445Z,7.97
2022-12-18T15:58:33.884Z,7.92
2022-12-18T16:01:04.809Z,7.93
2022-12-18T16:03:32.767Z,7.82
2022-12-18T16:06:02.946Z,7.88
2022-12-18T16:08:32.397Z,7.75
2022-12-18T16:11:02.393Z,7.64
2022-12-18T16:13:30.361Z,7.42
2022-12-18T16:15:58.577Z,7.44
2022-12-18T16:18:26.616Z,7.23
2022-12-18T16:20:54.801Z,7.32
2022-12-18T16:23:22.742Z,7.27
2022-12-18T16:25:50.652Z,7.40
2022-12-18T16:28:19.933Z,7.49
2022-12-18T16:30:47.884Z,7.57
2022-12-18T16:33:16.377Z,7.62
2022-12-18T16:35:44.270Z,7.72
2022-12-18T16:38:12.211Z,7.77
2022-12-18T16:41:00.249Z,7.84
2022-12-18T16:43:29.501Z,7.73
2022-12-18T16:45:59.585Z,7.69
2022-12-18T16:48:27.522Z,7.49
2022-12-18T16:51:02.899Z,7.26
2022-12-18T16:53:31.254Z,7.31
2022-12-18T16:56:00.355Z,7.07
2022-12-18T16:58:29.593Z,7.31
2022-12-18T17:00:57.506Z,7.24
2022-12-18T17:03:25.433Z,7.13
2022-12-18T17:05:53.508Z,7.03
2022-12-18T17:08:21.521Z,7.13
2022-12-18T17:10:49.560Z,7.30
2022-12-18T17:13:20.268Z,7.41
2022-12-18T17:15:53.904Z,7.32
2022-12-18T17:18:22.626Z,7.27
2022-12-18T17:20:50.630Z,7.30
2022-12-18T17:23:18.617Z,7.32
2022-12-18T17:25:46.523Z,7.35
2022-12-18T17:28:17.014Z,7.42
2022-12-18T17:30:44.869Z,7.49
2022-12-18T17:33:14.163Z,7.44
2022-12-18T17:35:43.060Z,7.25
2022-12-18T17:38:11.164Z,7.45
2022-12-18T17:40:45.940Z,7.42
2022-12-18T17:43:14.330Z,7.38
2022-12-18T17:45:42.594Z,7.41
2022-12-18T17:48:11.089Z,7.50
2022-12-18T17:50:40.870Z,7.47
2022-12-18T17:53:08.760Z,7.25
2022-12-18T17:55:36.669Z,7.32
2022-12-18T17:58:04.913Z,7.06
2022-12-18T18:00:33.016Z,6.90
2022-12-18T18:03:01.069Z,6.80
2022-12-18T18:05:29.133Z,6.63
2022-12-18T18:07:58.960Z,6.63
2022-12-18T18:10:26.830Z,6.64
2022-12-18T18:13:12.342Z,6.57
2022-12-18T18:15:41.023Z,6.14
2022-12-18T18:18:08.932Z,6.06
2022-12-18T18:20:41.029Z,6.13
2022-12-18T18:23:10.397Z,6.17
2022-12-18T18:25:38.474Z,6.15
2022-12-18T18:28:06.593Z,6.10
2022-12-18T18:30:34.659Z,6.11
2022-12-18T18:33:04.638Z,5.89
2022-12-18T18:38:24.766Z,6.04
2022-12-18T18:40:59.402Z,6.12
2022-12-18T18:43:27.314Z,5.95
2022-12-18T18:45:57.087Z,5.88
2022-12-18T18:48:25.024Z,5.78
2022-12-18T18:50:58.474Z,5.74
2022-12-18T18:53:28.454Z,5.73
2022-12-18T18:56:34.782Z,6.00
2022-12-18T18:58:47.455Z,5.94
2022-12-18T19:01:17.845Z,6.13
2022-12-18T19:03:47.151Z,5.76
2022-12-18T19:06:17.338Z,5.64
2022-12-18T19:08:47.808Z,5.41
2022-12-18T19:11:36.525Z,5.20
2022-12-18T19:14:06.222Z,5.12
2022-12-18T19:16:35.260Z,4.97
2022-12-18T19:19:05.647Z,5.06
2022-12-18T19:21:34.856Z,5.17
2022-12-18T19:24:04.195Z,5.27
2022-12-18T19:26:32.046Z,5.20
2022-12-18T19:29:03.325Z,5.30
2022-12-18T19:31:35.618Z,5.31
2022-12-18T19:34:05.067Z,5.26
2022-12-18T19:36:34.191Z,5.12
2022-12-18T19:39:08.521Z,5.26
2022-12-18T19:41:36.493Z,5.30
2022-12-18T19:44:08.238Z,5.34
2022-12-18T19:46:40.682Z,5.42
2022-12-18T19:49:16.269Z,5.46
2022-12-18T19:51:46.520Z,5.34
2022-12-18T19:54:17.532Z,5.27
2022-12-18T19:56:46.512Z,5.13
2022-12-18T19:59:15.341Z,5.23
2022-12-18T20:01:43.542Z,4.92
2022-12-18T20:04:11.634Z,4.90
2022-12-18T20:06:48.723Z,4.85
2022-12-18T20:09:19.416Z,4.79
2022-12-18T20:11:48.888Z,4.74
2022-12-18T20:14:22.993Z,4.54
2022-12-18T20:16:53.484Z,4.49
2022-12-18T20:19:22.448Z,4.48
2022-12-18T20:21:50.871Z,4.51
2022-12-18T20:24:20.161Z,4.61
2022-12-18T20:26:48.103Z,4.52
2022-12-18T20:29:16.066Z,4.39
2022-12-18T20:31:44.024Z,4.54
2022-12-18T20:34:12.092Z,4.49
2022-12-18T20:36:41.160Z,4.39
2022-12-18T20:39:11.023Z,4.42
2022-12-18T20:41:42.603Z,4.47
2022-12-18T20:44:23.710Z,4.42
2022-12-18T20:46:53.674Z,4.44
2022-12-18T20:49:21.971Z,4.52
2022-12-18T20:51:52.589Z,4.35
2022-12-18T20:54:21.111Z,4.32
2022-12-18T20:56:52.866Z,4.34
2022-12-18T20:59:21.211Z,4.29
2022-12-18T21:01:49.738Z,4.36
2022-12-18T21:04:19.264Z,4.32
2022-12-18T21:06:52.340Z,4.33
2022-12-18T21:09:22.302Z,4.31
2022-12-18T21:12:09.041Z,4.28
2022-12-18T21:14:40.241Z,4.11
2022-12-18T21:17:08.374Z,4.16
2022-12-18T21:19:36.370Z,4.22
2022-12-18T21:22:05.154Z,4.14
2022-12-18T21:24:33.307Z,4.35
2022-12-18T21:27:02.795Z,4.44
2022-12-18T21:29:30.991Z,4.18
2022-12-18T21:31:59.353Z,4.20
2022-12-18T21:34:29.373Z,4.34
2022-12-18T21:36:59.054Z,4.33
2022-12-18T21:39:28.556Z,4.31
2022-12-18T21:42:14.805Z,4.38
2022-12-18T21:44:44.474Z,4.29
2022-12-18T21:47:22.070Z,4.26
2022-12-18T21:49:51.691Z,4.29
2022-12-18T21:52:19.686Z,4.37
2022-12-18T21:54:49.464Z,4.30
2022-12-18T21:57:18.729Z,4.31
2022-12-18T21:59:48.851Z,4.39
2022-12-18T22:02:18.299Z,4.42
2022-12-18T22:04:47.034Z,4.43
2022-12-18T22:07:16.939Z,4.24
2022-12-18T22:09:45.122Z,4.18
2022-12-18T22:12:34.688Z,4.16
2022-12-18T22:15:05.462Z,4.21
2022-12-18T22:17:33.367Z,4.37
2022-12-18T22:20:01.362Z,4.33
2022-12-18T22:22:29.401Z,4.33
2022-12-18T22:24:57.332Z,4.30
2022-12-18T22:27:25.266Z,4.35
2022-12-18T22:30:04.365Z,4.33
2022-12-18T22:32:35.138Z,4.34
2022-12-18T22:35:08.271Z,4.29
2022-12-18T22:37:40.739Z,4.31
2022-12-18T22:40:12.964Z,4.43
2022-12-18T22:42:41.667Z,4.30
2022-12-18T22:45:10.540Z,4.22
2022-12-18T22:47:40.349Z,4.21
2022-12-18T22:50:09.158Z,4.33
2022-12-18T22:52:37.015Z,4.28
2022-12-18T22:55:05.611Z,4.37
2022-12-18T22:57:34.969Z,4.23
2022-12-18T23:00:05.307Z,4.37
2022-12-18T23:02:33.312Z,4.26
2022-12-18T23:05:02.720Z,4.12
2022-12-18T23:07:30.589Z,4.08
2022-12-18T23:10:01.214Z,4.12
2022-12-18T23:12:29.387Z,4.10
2022-12-18T23:14:57.573Z,4.18
2022-12-18T23:17:25.432Z,4.29
2022-12-18T23:19:53.274Z,4.20
2022-12-18T23:22:22.548Z,4.18
2022-12-18T23:24:50.424Z,4.18
2022-12-18T23:27:18.333Z,4.19
2022-12-18T23:29:46.208Z,4.02
2022-12-18T23:32:15.764Z,4.15
2022-12-18T23:34:43.751Z,4.03
2022-12-18T23:37:11.649Z,4.12
2022-12-18T23:39:40.910Z,4.09
2022-12-18T23:42:08.785Z,4.04
2022-12-18T23:44:37.628Z,4.01
2022-12-18T23:47:07.050Z,4.08
2022-12-18T23:49:34.991Z,4.09
2022-12-18T23:52:03.103Z,4.15
2022-12-18T23:54:33.539Z,4.06
2022-12-18T23:57:03.220Z,4.16
2022-12-18T23:59:31.124Z,4.03
